createdAt,value
2019-02-27T00:02:04.383Z,49.15
2019-02-27T00:04:35.522Z,49.59
2019-02-27T00:07:05.207Z,51.57
2019-02-27T00:09:35.092Z,51.97
2019-02-27T00:12:05.408Z,52.90
2019-02-27T00:14:35.488Z,53.54
2019-02-27T00:17:08.176Z,54.66
2019-02-27T00:19:37.311Z,54.61
2019-02-27T00:22:07.212Z,54.59
2019-02-27T00:24:36.866Z,54.10
2019-02-27T00:27:06.763Z,53.97
2019-02-27T00:29:36.413Z,53.21
2019-02-27T00:32:06.525Z,54.70
2019-02-27T00:34:36.536Z,54.78
2019-02-27T00:37:06.541Z,54.37
2019-02-27T00:39:36.405Z,54.89
2019-02-27T00:42:07.928Z,55.07
2019-02-27T00:44:37.559Z,55.12
2019-02-27T00:47:07.903Z,55.04
2019-02-27T00:49:37.997Z,53.96
2019-02-27T00:52:07.950Z,52.74
2019-02-27T00:54:37.941Z,51.81
2019-02-27T00:57:07.641Z,52.09
2019-02-27T00:59:37.840Z,52.67
2019-02-27T01:02:07.753Z,53.27
2019-02-27T01:04:38.012Z,52.72
2019-02-27T01:07:08.148Z,52.75
2019-02-27T01:09:39.546Z,52.81
2019-02-27T01:12:10.056Z,53.16
2019-02-27T01:14:40.786Z,53.35
2019-02-27T01:17:10.477Z,55.03
2019-02-27T01:19:40.098Z,54.47
2019-02-27T01:22:09.884Z,54.12
2019-02-27T01:24:40.329Z,55.54
2019-02-27T01:27:10.264Z,54.35
2019-02-27T01:29:40.062Z,54.18
2019-02-27T01:32:09.847Z,53.84
2019-02-27T01:34:44.190Z,53.84
2019-02-27T01:37:12.962Z,54.31
2019-02-27T01:39:44.078Z,54.96
2019-02-27T01:42:14.067Z,55.02
2019-02-27T01:44:46.506Z,54.76
2019-02-27T01:47:15.712Z,54.44
2019-02-27T01:49:48.946Z,53.93
2019-02-27T01:52:16.727Z,54.45
2019-02-27T01:54:48.961Z,54.83
2019-02-27T01:57:18.815Z,54.67
2019-02-27T01:59:50.557Z,54.87
2019-02-27T02:02:20.320Z,54.65
2019-02-27T02:04:53.116Z,54.98
2019-02-27T02:07:22.645Z,55.59
2019-02-27T02:09:55.249Z,55.75
2019-02-27T02:12:27.475Z,57.03
2019-02-27T02:15:02.496Z,57.44
2019-02-27T02:18:23.484Z,57.87
2019-02-27T02:21:27.418Z,58.08
2019-02-27T02:24:44.398Z,58.15
2019-02-27T02:27:46.459Z,57.18
2019-02-27T02:31:09.655Z,57.12
2019-02-27T02:34:20.809Z,56.90
2019-02-27T02:37:11.619Z,56.21
2019-02-27T02:40:30.809Z,56.72
2019-02-27T02:43:30.017Z,56.75
2019-02-27T02:46:10.474Z,56.45
2019-02-27T02:49:30.966Z,55.24
2019-02-27T02:52:26.641Z,55.25
2019-02-27T02:55:20.871Z,55.21
2019-02-27T02:58:25.421Z,55.13
2019-02-27T03:01:07.212Z,54.87
2019-02-27T03:03:51.139Z,56.39
2019-02-27T03:06:36.030Z,56.75
2019-02-27T03:09:31.733Z,55.90
2019-02-27T03:12:15.975Z,55.58
2019-02-27T03:15:12.563Z,56.00
2019-02-27T03:17:55.161Z,56.63
2019-02-27T03:21:05.158Z,56.78
2019-02-27T03:24:18.386Z,56.23
2019-02-27T03:27:29.615Z,55.41
2019-02-27T03:30:34.212Z,56.84
2019-02-27T03:33:24.472Z,56.21
2019-02-27T03:36:44.496Z,56.30
2019-02-27T03:39:36.637Z,56.93
2019-02-27T03:42:48.753Z,56.55
2019-02-27T03:45:48.968Z,56.44
2019-02-27T03:49:03.561Z,56.53
2019-02-27T03:51:47.721Z,56.96
2019-02-27T03:54:27.530Z,56.36
2019-02-27T03:58:03.284Z,55.77
2019-02-27T04:00:49.797Z,55.90
2019-02-27T04:03:44.001Z,56.81
2019-02-27T04:06:31.887Z,57.79
2019-02-27T04:09:02.076Z,58.81
2019-02-27T04:11:33.192Z,59.48
2019-02-27T04:14:23.943Z,57.11
2019-02-27T04:16:53.968Z,58.29
2019-02-27T04:19:24.303Z,58.83
2019-02-27T04:22:00.780Z,58.31
2019-02-27T04:24:26.339Z,57.09
2019-02-27T04:26:57.520Z,57.41
2019-02-27T04:29:27.493Z,57.13
2019-02-27T04:31:58.547Z,58.18
2019-02-27T04:34:28.347Z,58.07
2019-02-27T04:36:58.060Z,59.83
2019-02-27T04:39:27.733Z,60.07
2019-02-27T04:41:57.829Z,61.12
2019-02-27T04:44:27.640Z,61.12
2019-02-27T04:46:58.659Z,62.03
2019-02-27T04:49:28.279Z,62.42
2019-02-27T04:51:58.361Z,61.76
2019-02-27T04:54:27.951Z,60.69
2019-02-27T04:56:58.162Z,60.86
2019-02-27T04:59:27.737Z,60.98
2019-02-27T05:01:57.344Z,60.75
2019-02-27T05:04:27.007Z,59.03
2019-02-27T05:06:57.010Z,59.08
2019-02-27T05:09:26.901Z,59.38
2019-02-27T05:11:57.098Z,59.38
2019-02-27T05:14:28.235Z,59.28
2019-02-27T05:16:59.654Z,60.06
2019-02-27T05:19:30.125Z,59.90
2019-02-27T05:22:01.323Z,59.50
2019-02-27T05:24:31.236Z,58.90
2019-02-27T05:27:01.377Z,58.61
2019-02-27T05:29:31.145Z,58.44
2019-02-27T05:32:01.551Z,56.97
2019-02-27T05:34:31.216Z,56.71
2019-02-27T05:37:05.042Z,56.46
2019-02-27T05:39:34.345Z,57.24
2019-02-27T05:42:06.118Z,57.54
2019-02-27T05:44:36.363Z,56.82
2019-02-27T05:47:05.973Z,57.19
2019-02-27T05:49:36.869Z,57.70
2019-02-27T05:52:06.795Z,57.55
2019-02-27T05:54:36.535Z,57.05
2019-02-27T05:57:06.432Z,58.51
2019-02-27T05:59:36.357Z,59.53
2019-02-27T06:02:06.032Z,59.67
2019-02-27T06:04:36.015Z,58.96
2019-02-27T06:07:05.818Z,58.70
2019-02-27T06:09:35.442Z,57.74
2019-02-27T06:12:06.982Z,58.56
2019-02-27T06:14:36.636Z,58.13
2019-02-27T06:17:06.538Z,58.62
2019-02-27T06:19:36.694Z,57.43
2019-02-27T06:22:06.779Z,57.33
2019-02-27T06:24:36.991Z,57.53
2019-02-27T06:27:06.949Z,56.84
2019-02-27T06:29:36.817Z,57.03
2019-02-27T06:32:06.442Z,56.73
2019-02-27T06:34:36.372Z,56.53
2019-02-27T06:37:06.045Z,57.13
2019-02-27T06:39:36.065Z,58.36
2019-02-27T06:42:05.729Z,58.57
2019-02-27T06:44:36.642Z,58.57
2019-02-27T06:47:07.429Z,58.16
2019-02-27T06:49:37.034Z,56.93
2019-02-27T06:52:09.003Z,55.37
2019-02-27T06:54:38.110Z,55.27
2019-02-27T06:57:08.431Z,55.53
2019-02-27T06:59:38.618Z,55.97
2019-02-27T07:02:08.304Z,55.22
2019-02-27T07:04:39.522Z,55.47
2019-02-27T07:07:09.681Z,56.68
2019-02-27T07:09:39.277Z,56.05
2019-02-27T07:12:09.129Z,56.25
2019-02-27T07:14:39.854Z,56.37
2019-02-27T07:17:09.648Z,55.93
2019-02-27T07:19:39.246Z,54.79
2019-02-27T07:22:12.382Z,54.97
2019-02-27T07:24:40.438Z,54.03
2019-02-27T07:27:10.293Z,54.24
2019-02-27T07:29:40.142Z,53.11
2019-02-27T07:32:09.740Z,53.12
2019-02-27T07:34:39.378Z,54.39
2019-02-27T07:37:10.401Z,54.78
2019-02-27T07:39:40.954Z,53.02
2019-02-27T07:42:10.563Z,53.79
2019-02-27T07:44:42.187Z,52.98
2019-02-27T07:47:12.422Z,51.47
2019-02-27T07:49:42.045Z,51.46
2019-02-27T07:52:12.082Z,50.75
2019-02-27T07:54:41.996Z,48.86
2019-02-27T07:57:12.707Z,49.39
2019-02-27T07:59:42.634Z,49.06
2019-02-27T08:02:12.757Z,49.05
2019-02-27T08:04:42.493Z,49.17
2019-02-27T08:07:13.050Z,49.79
2019-02-27T08:09:43.655Z,49.97
2019-02-27T08:12:13.328Z,49.48
2019-02-27T08:14:43.174Z,49.59
2019-02-27T08:17:17.655Z,49.00
2019-02-27T08:19:45.350Z,48.28
2019-02-27T08:22:15.865Z,48.50
2019-02-27T08:24:45.721Z,48.11
2019-02-27T08:27:16.488Z,47.25
2019-02-27T08:29:46.130Z,46.32
2019-02-27T08:32:15.771Z,45.84
2019-02-27T08:34:45.701Z,44.09
2019-02-27T08:37:15.922Z,44.01
2019-02-27T08:39:45.863Z,43.12
2019-02-27T08:42:15.829Z,42.47
2019-02-27T08:44:46.818Z,42.31
2019-02-27T08:47:16.482Z,42.54
2019-02-27T08:49:46.187Z,41.22
2019-02-27T08:52:16.361Z,40.93
2019-02-27T08:54:46.355Z,40.62
2019-02-27T08:57:15.999Z,39.78
2019-02-27T08:59:45.722Z,39.99
2019-02-27T09:02:15.729Z,40.31
2019-02-27T09:04:46.170Z,39.21
2019-02-27T09:07:15.867Z,39.29
2019-02-27T09:09:45.779Z,39.07
2019-02-27T09:12:15.587Z,38.69
2019-02-27T09:14:45.576Z,38.16
2019-02-27T09:17:15.239Z,38.34
2019-02-27T09:19:46.406Z,38.22
2019-02-27T09:22:18.251Z,37.17
2019-02-27T09:24:48.247Z,37.07
2019-02-27T09:27:17.970Z,36.93
2019-02-27T09:29:49.388Z,36.83
2019-02-27T09:32:20.461Z,36.30
2019-02-27T09:34:50.411Z,35.82
2019-02-27T09:37:20.059Z,35.47
2019-02-27T09:39:49.684Z,34.85
2019-02-27T09:42:19.800Z,34.75
2019-02-27T09:44:49.730Z,34.23
2019-02-27T09:47:23.194Z,34.23
2019-02-27T09:49:51.897Z,33.52
2019-02-27T09:52:21.677Z,33.29
2019-02-27T09:54:51.357Z,32.97
2019-02-27T09:57:21.175Z,33.67
2019-02-27T09:59:53.661Z,33.22
2019-02-27T10:02:23.301Z,33.13
2019-02-27T10:04:53.580Z,32.92
2019-02-27T10:07:23.433Z,32.50
2019-02-27T10:09:53.563Z,32.29
2019-02-27T10:12:27.051Z,32.34
2019-02-27T10:14:54.740Z,32.65
2019-02-27T10:17:24.861Z,31.57
2019-02-27T10:20:01.388Z,31.46
2019-02-27T10:22:27.451Z,31.67
2019-02-27T10:24:57.335Z,31.19
2019-02-27T10:27:28.829Z,30.61
2019-02-27T10:30:01.727Z,29.97
2019-02-27T10:32:36.440Z,29.85
2019-02-27T10:35:05.429Z,29.56
2019-02-27T10:37:35.456Z,29.19
2019-02-27T10:40:08.736Z,29.19
2019-02-27T10:42:38.123Z,29.25
2019-02-27T10:45:10.100Z,29.16
2019-02-27T10:47:40.234Z,28.73
2019-02-27T10:50:10.135Z,28.86
2019-02-27T10:52:39.847Z,28.48
2019-02-27T10:55:14.163Z,27.13
2019-02-27T10:57:42.832Z,27.94
2019-02-27T11:00:24.830Z,27.49
2019-02-27T11:02:52.635Z,26.43
2019-02-27T11:05:22.719Z,26.89
2019-02-27T11:07:53.646Z,26.12
2019-02-27T11:10:25.296Z,25.57
2019-02-27T11:12:55.434Z,24.80
2019-02-27T11:15:25.675Z,24.71
2019-02-27T11:17:56.396Z,24.85
2019-02-27T11:20:26.408Z,24.12
2019-02-27T11:22:56.744Z,24.09
2019-02-27T11:25:29.307Z,23.36
2019-02-27T11:27:59.238Z,23.72
2019-02-27T11:30:35.836Z,23.44
2019-02-27T11:33:06.745Z,24.00
2019-02-27T11:35:36.761Z,23.67
2019-02-27T11:38:06.887Z,23.44
2019-02-27T11:40:41.557Z,23.41
2019-02-27T11:43:08.556Z,23.13
2019-02-27T11:45:38.385Z,22.18
2019-02-27T11:48:08.203Z,22.37
2019-02-27T11:50:38.332Z,22.67
2019-02-27T11:53:08.115Z,22.44
2019-02-27T11:55:37.950Z,22.44
2019-02-27T11:58:07.802Z,22.58
2019-02-27T12:00:37.609Z,22.25
2019-02-27T12:03:08.611Z,22.13
2019-02-27T12:05:38.584Z,22.55
2019-02-27T12:08:08.286Z,22.13
2019-02-27T12:10:37.910Z,22.73
2019-02-27T12:13:07.602Z,23.08
2019-02-27T12:15:37.238Z,23.08
2019-02-27T12:18:06.864Z,23.14
2019-02-27T12:20:36.503Z,23.07
2019-02-27T12:23:07.515Z,22.64
2019-02-27T12:25:37.882Z,22.49
2019-02-27T12:28:07.533Z,23.09
2019-02-27T12:30:37.976Z,22.95
2019-02-27T12:33:07.772Z,22.45
2019-02-27T12:35:37.587Z,22.61
2019-02-27T12:38:08.448Z,22.77
2019-02-27T12:40:38.358Z,23.01
2019-02-27T12:43:08.016Z,23.00
2019-02-27T12:45:38.151Z,23.19
2019-02-27T12:48:09.104Z,23.57
2019-02-27T12:50:39.000Z,23.41
2019-02-27T12:53:08.879Z,23.60
2019-02-27T12:55:38.609Z,23.82
2019-02-27T12:58:08.223Z,23.97
2019-02-27T13:00:39.891Z,24.31
2019-02-27T13:03:09.528Z,24.40
2019-02-27T13:05:40.130Z,24.49
2019-02-27T13:08:11.385Z,24.55
2019-02-27T13:10:41.023Z,24.45
2019-02-27T13:13:10.816Z,25.00
2019-02-27T13:15:41.171Z,24.65
2019-02-27T13:18:11.391Z,24.15
2019-02-27T13:20:42.998Z,24.73
2019-02-27T13:23:12.740Z,24.77
2019-02-27T13:25:42.846Z,24.68
2019-02-27T13:28:14.588Z,24.51
2019-02-27T13:30:44.704Z,25.12
2019-02-27T13:33:14.618Z,25.01
2019-02-27T13:35:47.211Z,24.64
2019-02-27T13:38:21.786Z,24.42
2019-02-27T13:40:52.002Z,24.62
2019-02-27T13:43:24.420Z,24.51
2019-02-27T13:45:53.308Z,25.17
2019-02-27T13:48:23.223Z,24.36
2019-02-27T13:50:52.891Z,24.24
2019-02-27T13:53:25.798Z,24.41
2019-02-27T13:55:54.260Z,24.51
2019-02-27T13:58:23.877Z,25.01
2019-02-27T14:00:54.489Z,24.36
2019-02-27T14:03:24.860Z,24.57
2019-02-27T14:05:54.523Z,24.68
2019-02-27T14:08:25.075Z,24.59
2019-02-27T14:10:54.929Z,24.77
2019-02-27T14:13:24.576Z,24.45
2019-02-27T14:15:54.307Z,24.56
2019-02-27T14:18:24.096Z,24.27
2019-02-27T14:20:53.759Z,24.26
2019-02-27T14:23:23.663Z,24.12
2019-02-27T14:25:53.308Z,24.14
2019-02-27T14:28:22.918Z,24.12
2019-02-27T14:30:52.855Z,24.40
2019-02-27T14:33:22.466Z,24.10
2019-02-27T14:35:52.418Z,24.52
2019-02-27T14:38:22.954Z,24.36
2019-02-27T14:40:52.847Z,24.59
2019-02-27T14:43:26.886Z,24.77
2019-02-27T14:45:54.055Z,24.67
2019-02-27T14:48:23.769Z,24.58
2019-02-27T14:50:53.958Z,24.83
2019-02-27T14:53:24.046Z,24.75
2019-02-27T14:55:53.747Z,24.73
2019-02-27T14:58:24.259Z,24.89
2019-02-27T15:00:55.052Z,24.89
2019-02-27T15:03:29.271Z,25.10
2019-02-27T15:05:56.270Z,25.27
2019-02-27T15:08:26.026Z,24.91
2019-02-27T15:10:55.639Z,25.08
2019-02-27T15:13:28.089Z,25.26
2019-02-27T15:15:56.930Z,24.85
2019-02-27T15:18:27.224Z,24.97
2019-02-27T15:20:57.302Z,25.23
2019-02-27T15:23:28.307Z,25.28
2019-02-27T15:25:58.313Z,25.39
2019-02-27T15:28:33.018Z,25.84
2019-02-27T15:30:59.504Z,25.61
2019-02-27T15:33:29.542Z,25.76
2019-02-27T15:35:59.697Z,25.73
2019-02-27T15:38:29.537Z,25.83
2019-02-27T15:41:02.447Z,25.56
2019-02-27T15:43:30.963Z,25.52
2019-02-27T15:46:00.850Z,25.80
2019-02-27T15:48:30.782Z,25.98
2019-02-27T15:51:00.484Z,26.02
2019-02-27T15:53:30.382Z,26.20
2019-02-27T15:56:00.342Z,26.11
2019-02-27T15:58:30.941Z,26.60
2019-02-27T16:01:00.596Z,26.44
2019-02-27T16:03:30.219Z,26.58
2019-02-27T16:06:04.913Z,26.80
2019-02-27T16:08:31.519Z,27.02
2019-02-27T16:11:01.865Z,27.50
2019-02-27T16:13:32.061Z,27.50
2019-02-27T16:16:04.703Z,27.77
2019-02-27T16:18:37.031Z,27.99
2019-02-27T16:21:06.054Z,28.28
2019-02-27T16:23:37.456Z,28.30
2019-02-27T16:26:07.462Z,28.33
2019-02-27T16:28:37.338Z,28.77
2019-02-27T16:31:07.166Z,28.93
2019-02-27T16:33:36.795Z,29.32
2019-02-27T16:36:06.695Z,29.37
2019-02-27T16:38:36.862Z,29.53
2019-02-27T16:41:06.775Z,29.78
2019-02-27T16:43:36.421Z,30.20
2019-02-27T16:46:08.550Z,30.02
2019-02-27T16:48:38.624Z,30.23
2019-02-27T16:51:08.893Z,30.61
2019-02-27T16:53:38.858Z,30.84
2019-02-27T16:56:11.996Z,31.40
2019-02-27T16:58:40.808Z,31.18
2019-02-27T17:01:10.692Z,31.26
2019-02-27T17:03:41.037Z,31.27
2019-02-27T17:06:14.081Z,31.60
2019-02-27T17:08:43.085Z,31.92
2019-02-27T17:11:13.069Z,31.88
2019-02-27T17:13:49.206Z,31.84
2019-02-27T17:16:18.596Z,32.54
2019-02-27T17:18:52.859Z,32.67
2019-02-27T17:21:26.049Z,33.24
2019-02-27T17:23:58.628Z,32.45
2019-02-27T17:26:35.269Z,32.88
2019-02-27T17:29:07.534Z,32.97
2019-02-27T17:31:37.899Z,33.08
2019-02-27T17:34:13.487Z,33.55
2019-02-27T17:36:40.594Z,33.43
2019-02-27T17:39:11.280Z,33.61
2019-02-27T17:41:41.832Z,33.55
2019-02-27T17:44:14.069Z,33.54
2019-02-27T17:46:44.472Z,33.51
2019-02-27T17:49:15.804Z,33.43
2019-02-27T17:51:46.376Z,33.74
2019-02-27T17:54:17.207Z,33.83
2019-02-27T17:56:49.960Z,33.73
2019-02-27T17:59:20.128Z,33.74
2019-02-27T18:01:50.716Z,33.40
2019-02-27T18:04:21.346Z,33.77
2019-02-27T18:06:52.205Z,33.32
2019-02-27T18:09:26.370Z,33.08
2019-02-27T18:11:55.223Z,32.95
2019-02-27T18:14:25.234Z,33.08
2019-02-27T18:16:55.381Z,33.43
2019-02-27T18:19:27.099Z,32.92
2019-02-27T18:21:57.610Z,33.10
2019-02-27T18:24:33.335Z,32.87
2019-02-27T18:27:00.447Z,33.16
2019-02-27T18:29:31.602Z,33.16
2019-02-27T18:32:06.177Z,33.11
2019-02-27T18:34:33.655Z,33.07
2019-02-27T18:37:03.510Z,33.27
2019-02-27T18:40:11.191Z,33.14
2019-02-27T18:42:44.260Z,33.37
2019-02-27T18:45:23.769Z,33.72
2019-02-27T18:48:01.382Z,33.71
2019-02-27T18:50:31.084Z,34.23
2019-02-27T18:53:00.794Z,34.00
2019-02-27T18:55:31.422Z,34.27
2019-02-27T18:58:01.495Z,34.08
2019-02-27T19:00:33.419Z,33.89
2019-02-27T19:03:02.687Z,34.20
2019-02-27T19:05:32.399Z,34.15
2019-02-27T19:08:02.172Z,34.33
2019-02-27T19:10:31.961Z,34.17
2019-02-27T19:13:02.259Z,34.12
2019-02-27T19:15:32.438Z,34.41
2019-02-27T19:18:03.720Z,34.43
2019-02-27T19:20:33.972Z,34.50
2019-02-27T19:23:03.918Z,34.70
2019-02-27T19:25:34.765Z,34.93
2019-02-27T19:28:05.505Z,35.11
2019-02-27T19:30:35.403Z,35.34
2019-02-27T19:33:05.639Z,36.51
2019-02-27T19:35:35.484Z,35.91
2019-02-27T19:38:05.630Z,36.30
2019-02-27T19:40:35.715Z,35.91
2019-02-27T19:43:05.710Z,36.03
2019-02-27T19:45:36.665Z,36.21
2019-02-27T19:48:07.502Z,36.40
2019-02-27T19:50:37.248Z,36.36
2019-02-27T19:53:07.569Z,36.45
2019-02-27T19:55:37.375Z,36.48
2019-02-27T19:58:07.162Z,36.47
2019-02-27T20:00:38.068Z,36.50
2019-02-27T20:03:08.946Z,36.37
2019-02-27T20:05:38.749Z,36.33
2019-02-27T20:08:10.823Z,36.57
2019-02-27T20:10:40.294Z,36.56
2019-02-27T20:13:10.075Z,37.03
2019-02-27T20:15:42.715Z,37.26
2019-02-27T20:18:14.372Z,37.19
2019-02-27T20:20:44.318Z,37.19
2019-02-27T20:23:14.431Z,37.68
2019-02-27T20:25:44.615Z,37.89
2019-02-27T20:28:15.029Z,38.09
2019-02-27T20:30:45.593Z,38.36
2019-02-27T20:33:15.435Z,37.57
2019-02-27T20:35:46.771Z,37.95
2019-02-27T20:38:17.016Z,38.77
2019-02-27T20:40:47.214Z,38.22
2019-02-27T20:43:17.303Z,37.47
2019-02-27T20:45:47.547Z,37.82
2019-02-27T20:48:17.605Z,38.53
2019-02-27T20:50:47.571Z,38.62
2019-02-27T20:53:17.382Z,38.48
2019-02-27T20:55:47.560Z,38.99
2019-02-27T20:58:18.009Z,38.71
2019-02-27T21:00:47.936Z,38.92
2019-02-27T21:03:17.866Z,38.62
2019-02-27T21:05:48.612Z,38.65
2019-02-27T21:08:18.421Z,38.80
2019-02-27T21:10:48.222Z,39.02
2019-02-27T21:13:19.131Z,39.21
2019-02-27T21:15:49.098Z,39.00
2019-02-27T21:18:18.793Z,38.75
2019-02-27T21:20:50.840Z,38.61
2019-02-27T21:23:20.370Z,38.78
2019-02-27T21:25:50.827Z,38.97
2019-02-27T21:28:21.264Z,38.90
2019-02-27T21:30:52.341Z,39.27
2019-02-27T21:33:22.859Z,39.53
2019-02-27T21:35:52.647Z,38.96
2019-02-27T21:38:22.548Z,38.85
2019-02-27T21:40:52.485Z,38.91
2019-02-27T21:43:25.713Z,38.44
2019-02-27T21:45:54.414Z,38.49
2019-02-27T21:48:26.899Z,38.72
2019-02-27T21:50:55.366Z,38.42
2019-02-27T21:53:26.113Z,38.58
2019-02-27T21:55:56.624Z,38.41
2019-02-27T21:58:31.750Z,38.33
2019-02-27T22:00:57.899Z,38.22
2019-02-27T22:03:27.579Z,38.25
2019-02-27T22:05:57.772Z,38.14
2019-02-27T22:08:27.641Z,37.96
2019-02-27T22:10:57.897Z,37.95
2019-02-27T22:13:30.283Z,38.10
2019-02-27T22:16:00.005Z,38.03
2019-02-27T22:18:29.667Z,38.16
2019-02-27T22:21:00.410Z,37.78
2019-02-27T22:23:30.329Z,38.02
2019-02-27T22:26:03.115Z,38.04
2019-02-27T22:28:32.437Z,38.15
2019-02-27T22:31:06.284Z,38.54
2019-02-27T22:33:34.295Z,38.34
2019-02-27T22:36:04.179Z,38.25
2019-02-27T22:38:34.571Z,38.27
2019-02-27T22:41:04.609Z,38.30
2019-02-27T22:43:35.177Z,38.35
2019-02-27T22:46:04.931Z,38.83
2019-02-27T22:48:34.736Z,39.15
2019-02-27T22:51:04.715Z,38.90
2019-02-27T22:53:34.829Z,38.84
2019-02-27T22:56:04.669Z,39.05
2019-02-27T22:58:34.308Z,39.14
2019-02-27T23:01:15.867Z,39.14
2019-02-27T23:03:54.934Z,39.45
2019-02-27T23:06:25.027Z,39.96
2019-02-27T23:08:55.134Z,40.33
2019-02-27T23:11:24.866Z,39.56
2019-02-27T23:13:55.515Z,39.57
2019-02-27T23:16:25.155Z,39.83
2019-02-27T23:18:56.216Z,39.86
2019-02-27T23:21:26.583Z,39.85
2019-02-27T23:23:57.284Z,39.98
2019-02-27T23:26:27.071Z,40.13
2019-02-27T23:28:57.992Z,40.01
2019-02-27T23:31:27.735Z,40.48
2019-02-27T23:33:57.468Z,40.07
2019-02-27T23:36:27.108Z,40.24
2019-02-27T23:38:57.215Z,40.24
2019-02-27T23:41:29.056Z,40.14
2019-02-27T23:44:00.034Z,40.14
2019-02-27T23:46:30.017Z,40.23
2019-02-27T23:49:00.267Z,40.07
2019-02-27T23:51:29.989Z,40.27
2019-02-27T23:54:02.053Z,40.69
2019-02-27T23:56:31.818Z,40.38
2019-02-27T23:59:02.554Z,40.36
